sensor_id;sensor_type;location;lat;lon;timestamp;pressure;altitude;pressure_sealevel;temperature;humidity
50226;BME280;36113;50.742;6.432;2022-11-20T00:01:37;145344.50;;;1.37;100.00
50226;BME280;36113;50.742;6.432;2022-11-20T00:04:03;145343.28;;;1.36;100.00
50226;BME280;36113;50.742;6.432;2022-11-20T00:06:28;145334.56;;;1.33;100.00
50226;BME280;36113;50.742;6.432;2022-11-20T00:08:58;145293.53;;;1.16;100.00
50226;BME280;36113;50.742;6.432;2022-11-20T00:11:26;145345.75;;;1.37;100.00
50226;BME280;36113;50.742;6.432;2022-11-20T00:13:55;145354.44;;;1.41;100.00
50226;BME280;36113;50.742;6.432;2022-11-20T00:16:23;145355.72;;;1.41;100.00
50226;BME280;36113;50.742;6.432;2022-11-20T00:18:49;145363.13;;;1.44;100.00
50226;BME280;36113;50.742;6.432;2022-11-20T00:21:17;145370.63;;;1.47;100.00
50226;BME280;36113;50.742;6.432;2022-11-20T00:23:43;145302.25;;;1.19;100.00
50226;BME280;36113;50.742;6.432;2022-11-20T00:26:11;145345.75;;;1.37;100.00
50226;BME280;36113;50.742;6.432;2022-11-20T00:28:37;145351.97;;;1.40;100.00
50226;BME280;36113;50.742;6.432;2022-11-20T00:31:09;145345.75;;;1.37;100.00
50226;BME280;36113;50.742;6.432;2022-11-20T00:33:35;145361.91;;;1.44;100.00
50226;BME280;36113;50.742;6.432;2022-11-20T00:36:02;145359.44;;;1.43;100.00
50226;BME280;36113;50.742;6.432;2022-11-20T00:38:27;145348.25;;;1.38;100.00
50226;BME280;36113;50.742;6.432;2022-11-20T00:40:57;145327.09;;;1.29;100.00
50226;BME280;36113;50.742;6.432;2022-11-20T00:43:22;145271.13;;;1.06;100.00
50226;BME280;36113;50.742;6.432;2022-11-20T00:45:48;145342.00;;;1.36;100.00
50226;BME280;36113;50.742;6.432;2022-11-20T00:48:13;145343.28;;;1.36;100.00
50226;BME280;36113;50.742;6.432;2022-11-20T00:50:38;145333.31;;;1.32;100.00
50226;BME280;36113;50.742;6.432;2022-11-20T00:53:04;145330.84;;;1.31;100.00
50226;BME280;36113;50.742;6.432;2022-11-20T00:55:29;145327.09;;;1.29;100.00
50226;BME280;36113;50.742;6.432;2022-11-20T00:57:54;145301.00;;;1.19;100.00
50226;BME280;36113;50.742;6.432;2022-11-20T01:00:20;145342.00;;;1.36;100.00
50226;BME280;36113;50.742;6.432;2022-11-20T01:02:45;145330.84;;;1.31;100.00
50226;BME280;36113;50.742;6.432;2022-11-20T01:05:10;145358.19;;;1.42;100.00
50226;BME280;36113;50.742;6.432;2022-11-20T01:07:35;145365.66;;;1.45;100.00
50226;BME280;36113;50.742;6.432;2022-11-20T01:10:01;145355.72;;;1.41;100.00
50226;BME280;36113;50.742;6.432;2022-11-20T01:12:26;145302.25;;;1.19;100.00
50226;BME280;36113;50.742;6.432;2022-11-20T01:14:51;145354.44;;;1.41;100.00
50226;BME280;36113;50.742;6.432;2022-11-20T01:17:17;145358.19;;;1.42;100.00
50226;BME280;36113;50.742;6.432;2022-11-20T01:19:42;145363.13;;;1.44;100.00
50226;BME280;36113;50.742;6.432;2022-11-20T01:22:07;145368.16;;;1.46;100.00
50226;BME280;36113;50.742;6.432;2022-11-20T01:24:32;145313.44;;;1.24;100.00
50226;BME280;36113;50.742;6.432;2022-11-20T01:26:58;145358.19;;;1.42;100.00
50226;BME280;36113;50.742;6.432;2022-11-20T01:29:24;145359.44;;;1.43;100.00
50226;BME280;36113;50.742;6.432;2022-11-20T01:31:49;145360.69;;;1.43;100.00
50226;BME280;36113;50.742;6.432;2022-11-20T01:34:19;145337.03;;;1.34;100.00
50226;BME280;36113;50.742;6.432;2022-11-20T01:36:45;145303.47;;;1.20;100.00
50226;BME280;36113;50.742;6.432;2022-11-20T01:39:17;145340.78;;;1.35;100.00
50226;BME280;36113;50.742;6.432;2022-11-20T01:41:43;145356.94;;;1.42;100.00
50226;BME280;36113;50.742;6.432;2022-11-20T01:44:52;145283.56;;;1.11;100.00
50226;BME280;36113;50.742;6.432;2022-11-20T01:47:24;145333.31;;;1.32;100.00
50226;BME280;36113;50.742;6.432;2022-11-20T01:49:55;145329.56;;;1.30;100.00
50226;BME280;36113;50.742;6.432;2022-11-20T01:52:52;145337.03;;;1.34;100.00
50226;BME280;36113;50.742;6.432;2022-11-20T01:55:23;145342.00;;;1.36;100.00
50226;BME280;36113;50.742;6.432;2022-11-20T01:57:51;145325.88;;;1.29;100.00
50226;BME280;36113;50.742;6.432;2022-11-20T02:00:18;145314.69;;;1.24;100.00
50226;BME280;36113;50.742;6.432;2022-11-20T02:02:48;145322.13;;;1.27;100.00
50226;BME280;36113;50.742;6.432;2022-11-20T02:08:19;145324.59;;;1.28;100.00
50226;BME280;36113;50.742;6.432;2022-11-20T02:10:45;145305.97;;;1.21;100.00
50226;BME280;36113;50.742;6.432;2022-11-20T02:13:10;145312.16;;;1.23;100.00
50226;BME280;36113;50.742;6.432;2022-11-20T02:15:54;145305.97;;;1.21;100.00
50226;BME280;36113;50.742;6.432;2022-11-20T02:18:20;145294.78;;;1.16;100.00
50226;BME280;36113;50.742;6.432;2022-11-20T02:20:50;145294.78;;;1.16;100.00
50226;BME280;36113;50.742;6.432;2022-11-20T02:23:32;145305.97;;;1.21;100.00
50226;BME280;36113;50.742;6.432;2022-11-20T02:26:02;145304.69;;;1.20;100.00
50226;BME280;36113;50.742;6.432;2022-11-20T02:28:30;145310.94;;;1.23;100.00
50226;BME280;36113;50.742;6.432;2022-11-20T02:30:55;145298.50;;;1.18;100.00
50226;BME280;36113;50.742;6.432;2022-11-20T02:33:20;145213.97;;;0.83;100.00
50226;BME280;36113;50.742;6.432;2022-11-20T02:35:46;145332.06;;;1.31;100.00
50226;BME280;36113;50.742;6.432;2022-11-20T02:38:13;145351.97;;;1.40;100.00
50226;BME280;36113;50.742;6.432;2022-11-20T02:40:38;145309.72;;;1.22;100.00
50226;BME280;36113;50.742;6.432;2022-11-20T02:43:03;145310.94;;;1.23;100.00
50226;BME280;36113;50.742;6.432;2022-11-20T02:45:29;145369.38;;;1.47;100.00
50226;BME280;36113;50.742;6.432;2022-11-20T02:47:54;145329.56;;;1.30;100.00
50226;BME280;36113;50.742;6.432;2022-11-20T02:50:20;145381.81;;;1.52;100.00
50226;BME280;36113;50.742;6.432;2022-11-20T02:52:45;145293.53;;;1.16;100.00
50226;BME280;36113;50.742;6.432;2022-11-20T02:55:11;145383.06;;;1.53;100.00
50226;BME280;36113;50.742;6.432;2022-11-20T02:57:36;145333.31;;;1.32;100.00
50226;BME280;36113;50.742;6.432;2022-11-20T03:00:03;145380.59;;;1.52;100.00
50226;BME280;36113;50.742;6.432;2022-11-20T03:02:32;145384.31;;;1.53;100.00
50226;BME280;36113;50.742;6.432;2022-11-20T03:04:58;145327.09;;;1.29;100.00
50226;BME280;36113;50.742;6.432;2022-11-20T03:07:23;145381.81;;;1.52;100.00
50226;BME280;36113;50.742;6.432;2022-11-20T03:09:49;145380.59;;;1.52;100.00
50226;BME280;36113;50.742;6.432;2022-11-20T03:12:14;145393.03;;;1.57;100.00
50226;BME280;36113;50.742;6.432;2022-11-20T03:14:39;145355.72;;;1.41;100.00
50226;BME280;36113;50.742;6.432;2022-11-20T03:17:05;145416.63;;;1.66;100.00
50226;BME280;36113;50.742;6.432;2022-11-20T03:19:31;145402.97;;;1.61;100.00
50226;BME280;36113;50.742;6.432;2022-11-20T03:21:56;145398.00;;;1.59;100.00
50226;BME280;36113;50.742;6.432;2022-11-20T03:24:21;145394.25;;;1.57;100.00
50226;BME280;36113;50.742;6.432;2022-11-20T03:26:46;145396.75;;;1.58;100.00
50226;BME280;36113;50.742;6.432;2022-11-20T03:29:12;145344.50;;;1.37;100.00
50226;BME280;36113;50.742;6.432;2022-11-20T03:31:39;145381.81;;;1.52;100.00
50226;BME280;36113;50.742;6.432;2022-11-20T03:34:09;145405.47;;;1.62;100.00
50226;BME280;36113;50.742;6.432;2022-11-20T03:36:38;145425.34;;;1.70;100.00
50226;BME280;36113;50.742;6.432;2022-11-20T03:39:03;145406.69;;;1.62;100.00
50226;BME280;36113;50.742;6.432;2022-11-20T03:41:30;145426.59;;;1.71;100.00
50226;BME280;36113;50.742;6.432;2022-11-20T03:44:00;145376.84;;;1.50;100.00
50226;BME280;36113;50.742;6.432;2022-11-20T03:46:26;145414.16;;;1.65;100.00
50226;BME280;36113;50.742;6.432;2022-11-20T03:48:52;145416.63;;;1.66;100.00
50226;BME280;36113;50.742;6.432;2022-11-20T03:53:46;145436.53;;;1.75;100.00
50226;BME280;36113;50.742;6.432;2022-11-20T03:56:13;145406.69;;;1.62;100.00
50226;BME280;36113;50.742;6.432;2022-11-20T03:58:39;145426.59;;;1.71;100.00
50226;BME280;36113;50.742;6.432;2022-11-20T04:01:10;145434.09;;;1.74;100.00
50226;BME280;36113;50.742;6.432;2022-11-20T04:03:37;145376.84;;;1.50;100.00
50226;BME280;36113;50.742;6.432;2022-11-20T04:08:33;145439.03;;;1.76;100.00
50226;BME280;36113;50.742;6.432;2022-11-20T04:11:18;145432.81;;;1.73;100.00
50226;BME280;36113;50.742;6.432;2022-11-20T04:13:49;145412.91;;;1.65;100.00
50226;BME280;36113;50.742;6.432;2022-11-20T04:16:15;145405.47;;;1.62;100.00
50226;BME280;36113;50.742;6.432;2022-11-20T04:18:40;145360.69;;;1.43;100.00
50226;BME280;36113;50.742;6.432;2022-11-20T04:21:06;145335.81;;;1.33;100.00
50226;BME280;36113;50.742;6.432;2022-11-20T04:23:32;145360.69;;;1.43;100.00
50226;BME280;36113;50.742;6.432;2022-11-20T04:26:11;145347.00;;;1.38;100.00
50226;BME280;36113;50.742;6.432;2022-11-20T04:28:37;145359.44;;;1.43;100.00
50226;BME280;36113;50.742;6.432;2022-11-20T04:31:10;145310.94;;;1.23;100.00
50226;BME280;36113;50.742;6.432;2022-11-20T04:33:37;145345.75;;;1.37;100.00
50226;BME280;36113;50.742;6.432;2022-11-20T04:36:05;145338.25;;;1.34;100.00
50226;BME280;36113;50.742;6.432;2022-11-20T04:38:30;145314.69;;;1.24;100.00
50226;BME280;36113;50.742;6.432;2022-11-20T04:40:57;145349.47;;;1.39;100.00
50226;BME280;36113;50.742;6.432;2022-11-20T04:43:23;145333.31;;;1.32;100.00
50226;BME280;36113;50.742;6.432;2022-11-20T04:45:52;145312.16;;;1.23;100.00
50226;BME280;36113;50.742;6.432;2022-11-20T04:48:18;145297.28;;;1.17;100.00
50226;BME280;36113;50.742;6.432;2022-11-20T04:50:43;145287.28;;;1.13;100.00
50226;BME280;36113;50.742;6.432;2022-11-20T04:53:08;145261.19;;;1.02;100.00
50226;BME280;36113;50.742;6.432;2022-11-20T04:55:33;145356.94;;;1.42;100.00
50226;BME280;36113;50.742;6.432;2022-11-20T04:57:59;145369.38;;;1.47;100.00
50226;BME280;36113;50.742;6.432;2022-11-20T05:00:24;145301.00;;;1.19;100.00
50226;BME280;36113;50.742;6.432;2022-11-20T05:02:49;145314.69;;;1.24;100.00
50226;BME280;36113;50.742;6.432;2022-11-20T05:05:15;145299.72;;;1.18;100.00
50226;BME280;36113;50.742;6.432;2022-11-20T05:07:40;145279.81;;;1.10;100.00
50226;BME280;36113;50.742;6.432;2022-11-20T05:10:06;145226.41;;;0.88;100.00
50226;BME280;36113;50.742;6.432;2022-11-20T05:12:31;145286.06;;;1.12;100.00
50226;BME280;36113;50.742;6.432;2022-11-20T05:14:57;145328.34;;;1.30;100.00
50226;BME280;36113;50.742;6.432;2022-11-20T05:17:22;145319.63;;;1.26;100.00
50226;BME280;36113;50.742;6.432;2022-11-20T05:19:47;145304.69;;;1.20;100.00
50226;BME280;36113;50.742;6.432;2022-11-20T05:22:12;145218.94;;;0.85;100.00
50226;BME280;36113;50.742;6.432;2022-11-20T05:24:38;145303.47;;;1.20;100.00
50226;BME280;36113;50.742;6.432;2022-11-20T05:27:03;145294.78;;;1.16;100.00
50226;BME280;36113;50.742;6.432;2022-11-20T05:29:28;145256.25;;;1.00;100.00
50226;BME280;36113;50.742;6.432;2022-11-20T05:31:54;145248.78;;;0.97;100.00
50226;BME280;36113;50.742;6.432;2022-11-20T05:34:19;145276.13;;;1.08;100.00
50226;BME280;36113;50.742;6.432;2022-11-20T05:36:44;145332.06;;;1.31;100.00
50226;BME280;36113;50.742;6.432;2022-11-20T05:39:09;145342.00;;;1.36;100.00
50226;BME280;36113;50.742;6.432;2022-11-20T05:41:35;145313.44;;;1.24;100.00
50226;BME280;36113;50.742;6.432;2022-11-20T05:44:00;145327.09;;;1.29;100.00
50226;BME280;36113;50.742;6.432;2022-11-20T05:46:26;145344.50;;;1.37;100.00
50226;BME280;36113;50.742;6.432;2022-11-20T05:48:51;145353.22;;;1.40;100.00
50226;BME280;36113;50.742;6.432;2022-11-20T05:51:18;145356.94;;;1.42;100.00
50226;BME280;36113;50.742;6.432;2022-11-20T05:53:44;145305.97;;;1.21;100.00
50226;BME280;36113;50.742;6.432;2022-11-20T05:56:12;145344.50;;;1.37;100.00
50226;BME280;36113;50.742;6.432;2022-11-20T05:58:38;145286.06;;;1.12;100.00
50226;BME280;36113;50.742;6.432;2022-11-20T06:01:15;145293.53;;;1.16;100.00
50226;BME280;36113;50.742;6.432;2022-11-20T06:03:41;145313.44;;;1.24;100.00
50226;BME280;36113;50.742;6.432;2022-11-20T06:06:15;145310.94;;;1.23;100.00
50226;BME280;36113;50.742;6.432;2022-11-20T06:08:41;145332.06;;;1.31;100.00
50226;BME280;36113;50.742;6.432;2022-11-20T06:11:08;145288.56;;;1.14;100.00
50226;BME280;36113;50.742;6.432;2022-11-20T06:13:33;145297.28;;;1.17;100.00
50226;BME280;36113;50.742;6.432;2022-11-20T06:16:00;145292.25;;;1.15;100.00
50226;BME280;36113;50.742;6.432;2022-11-20T06:18:29;145303.47;;;1.20;100.00
50226;BME280;36113;50.742;6.432;2022-11-20T06:21:05;145304.69;;;1.20;100.00
50226;BME280;36113;50.742;6.432;2022-11-20T06:23:32;145293.53;;;1.16;100.00
50226;BME280;36113;50.742;6.432;2022-11-20T06:26:01;145325.88;;;1.29;100.00
50226;BME280;36113;50.742;6.432;2022-11-20T06:28:27;145324.59;;;1.28;100.00
50226;BME280;36113;50.742;6.432;2022-11-20T06:30:53;145291.03;;;1.15;100.00
50226;BME280;36113;50.742;6.432;2022-11-20T06:33:18;145347.00;;;1.38;100.00
50226;BME280;36113;50.742;6.432;2022-11-20T06:35:43;145375.56;;;1.49;100.00
50226;BME280;36113;50.742;6.432;2022-11-20T06:38:09;145355.72;;;1.41;100.00
50226;BME280;36113;50.742;6.432;2022-11-20T06:40:34;145361.91;;;1.44;100.00
50226;BME280;36113;50.742;6.432;2022-11-20T06:43:00;145340.78;;;1.35;100.00
50226;BME280;36113;50.742;6.432;2022-11-20T06:45:25;145337.03;;;1.34;100.00
50226;BME280;36113;50.742;6.432;2022-11-20T06:47:50;145369.38;;;1.47;100.00
50226;BME280;36113;50.742;6.432;2022-11-20T06:50:16;145364.41;;;1.45;100.00
50226;BME280;36113;50.742;6.432;2022-11-20T06:52:41;145291.03;;;1.15;100.00
50226;BME280;36113;50.742;6.432;2022-11-20T06:55:07;145368.16;;;1.46;100.00
50226;BME280;36113;50.742;6.432;2022-11-20T06:57:32;145378.09;;;1.50;100.00
50226;BME280;36113;50.742;6.432;2022-11-20T06:59:58;145381.81;;;1.52;100.00
50226;BME280;36113;50.742;6.432;2022-11-20T07:02:23;145337.03;;;1.34;100.00
50226;BME280;36113;50.742;6.432;2022-11-20T07:04:48;145385.56;;;1.54;100.00
50226;BME280;36113;50.742;6.432;2022-11-20T07:07:14;145360.69;;;1.43;100.00
50226;BME280;36113;50.742;6.432;2022-11-20T07:09:39;145365.66;;;1.45;100.00
50226;BME280;36113;50.742;6.432;2022-11-20T07:12:05;145365.66;;;1.45;100.00
50226;BME280;36113;50.742;6.432;2022-11-20T07:14:30;145390.53;;;1.56;100.00
50226;BME280;36113;50.742;6.432;2022-11-20T07:16:55;145388.00;;;1.55;100.00
50226;BME280;36113;50.742;6.432;2022-11-20T07:19:20;145388.00;;;1.55;100.00
50226;BME280;36113;50.742;6.432;2022-11-20T07:21:46;145379.31;;;1.51;100.00
50226;BME280;36113;50.742;6.432;2022-11-20T07:24:11;145395.50;;;1.58;100.00
50226;BME280;36113;50.742;6.432;2022-11-20T07:26:37;145393.03;;;1.57;100.00
50226;BME280;36113;50.742;6.432;2022-11-20T07:29:02;145419.13;;;1.67;100.00
50226;BME280;36113;50.742;6.432;2022-11-20T07:31:28;145414.16;;;1.65;100.00
50226;BME280;36113;50.742;6.432;2022-11-20T07:33:56;145420.38;;;1.68;100.00
50226;BME280;36113;50.742;6.432;2022-11-20T07:36:22;145430.34;;;1.72;100.00
50226;BME280;36113;50.742;6.432;2022-11-20T07:38:47;145422.88;;;1.69;100.00
50226;BME280;36113;50.742;6.432;2022-11-20T07:41:12;145430.34;;;1.72;100.00
50226;BME280;36113;50.742;6.432;2022-11-20T07:43:37;145441.50;;;1.77;100.00
50226;BME280;36113;50.742;6.432;2022-11-20T07:46:03;145455.22;;;1.82;100.00
50226;BME280;36113;50.742;6.432;2022-11-20T07:48:29;145460.19;;;1.84;100.00
50226;BME280;36113;50.742;6.432;2022-11-20T07:50:55;145425.34;;;1.70;100.00
50226;BME280;36113;50.742;6.432;2022-11-20T07:53:21;145429.06;;;1.72;100.00
50226;BME280;36113;50.742;6.432;2022-11-20T07:55:47;145471.34;;;1.89;100.00
50226;BME280;36113;50.742;6.432;2022-11-20T07:58:12;145471.34;;;1.89;100.00
50226;BME280;36113;50.742;6.432;2022-11-20T08:00:39;145480.09;;;1.93;100.00
50226;BME280;36113;50.742;6.432;2022-11-20T08:03:04;145491.28;;;1.97;100.00
50226;BME280;36113;50.742;6.432;2022-11-20T08:05:30;145482.56;;;1.94;100.00
50226;BME280;36113;50.742;6.432;2022-11-20T08:07:55;145493.78;;;1.98;100.00
50226;BME280;36113;50.742;6.432;2022-11-20T08:10:20;145465.16;;;1.86;100.00
50226;BME280;36113;50.742;6.432;2022-11-20T08:12:50;145528.59;;;2.13;100.00
50226;BME280;36113;50.742;6.432;2022-11-20T08:15:35;145511.19;;;2.05;100.00
50226;BME280;36113;50.742;6.432;2022-11-20T08:18:06;145405.47;;;1.62;100.00
50226;BME280;36113;50.742;6.432;2022-11-20T08:20:32;145526.16;;;2.12;100.00
50226;BME280;36113;50.742;6.432;2022-11-20T08:23:01;145534.84;;;2.15;100.00
50226;BME280;36113;50.742;6.432;2022-11-20T08:25:29;145537.31;;;2.16;100.00
50226;BME280;36113;50.742;6.432;2022-11-20T08:27:57;145493.78;;;1.98;100.00
50226;BME280;36113;50.742;6.432;2022-11-20T08:30:22;145553.50;;;2.23;100.00
50226;BME280;36113;50.742;6.432;2022-11-20T08:32:48;145567.16;;;2.29;100.00
50226;BME280;36113;50.742;6.432;2022-11-20T08:35:13;145577.16;;;2.33;100.00
50226;BME280;36113;50.742;6.432;2022-11-20T08:37:39;145574.66;;;2.32;100.00
50226;BME280;36113;50.742;6.432;2022-11-20T08:40:10;145592.06;;;2.39;100.00
50226;BME280;36113;50.742;6.432;2022-11-20T08:42:36;145593.34;;;2.39;100.00
50226;BME280;36113;50.742;6.432;2022-11-20T08:45:01;145610.75;;;2.47;100.00
50226;BME280;36113;50.742;6.432;2022-11-20T08:47:27;145614.50;;;2.48;100.00
50226;BME280;36113;50.742;6.432;2022-11-20T08:49:52;145600.81;;;2.42;100.00
50226;BME280;36113;50.742;6.432;2022-11-20T08:52:17;145598.31;;;2.41;100.00
50226;BME280;36113;50.742;6.432;2022-11-20T08:54:42;145621.97;;;2.51;100.00
50226;BME280;36113;50.742;6.432;2022-11-20T08:57:08;145597.09;;;2.41;100.00
50226;BME280;36113;50.742;6.432;2022-11-20T08:59:33;145625.72;;;2.53;100.00
50226;BME280;36113;50.742;6.432;2022-11-20T09:01:58;145635.66;;;2.57;100.00
50226;BME280;36113;50.742;6.432;2022-11-20T09:04:24;145646.88;;;2.61;100.00
50226;BME280;36113;50.742;6.432;2022-11-20T09:06:49;145605.78;;;2.44;100.00
50226;BME280;36113;50.742;6.432;2022-11-20T09:09:16;145669.25;;;2.71;100.00
50226;BME280;36113;50.742;6.432;2022-11-20T09:11:42;145699.13;;;2.83;100.00
50226;BME280;36113;50.742;6.432;2022-11-20T09:14:07;145687.91;;;2.78;100.00
50226;BME280;36113;50.742;6.432;2022-11-20T09:16:33;145711.59;;;2.88;100.00
50226;BME280;36113;50.742;6.432;2022-11-20T09:18:58;145742.75;;;3.01;100.00
50226;BME280;36113;50.742;6.432;2022-11-20T09:21:23;145737.72;;;2.99;100.00
50226;BME280;36113;50.742;6.432;2022-11-20T09:23:49;145720.28;;;2.92;100.00
50226;BME280;36113;50.742;6.432;2022-11-20T09:26:15;145777.59;;;3.15;100.00
50226;BME280;36113;50.742;6.432;2022-11-20T09:28:40;145668.03;;;2.70;100.00
50226;BME280;36113;50.742;6.432;2022-11-20T09:31:16;145790.03;;;3.21;100.00
50226;BME280;36113;50.742;6.432;2022-11-20T09:33:44;145796.25;;;3.23;100.00
50226;BME280;36113;50.742;6.432;2022-11-20T09:36:09;145780.09;;;3.16;100.00
50226;BME280;36113;50.742;6.432;2022-11-20T09:38:35;145771.34;;;3.13;100.00
50226;BME280;36113;50.742;6.432;2022-11-20T09:41:05;145772.63;;;3.13;100.00
50226;BME280;36113;50.742;6.432;2022-11-20T09:43:51;145782.56;;;3.17;100.00
50226;BME280;36113;50.742;6.432;2022-11-20T09:46:31;145781.34;;;3.17;100.00
50226;BME280;36113;50.742;6.432;2022-11-20T09:49:23;145780.09;;;3.16;100.00
50226;BME280;36113;50.742;6.432;2022-11-20T09:54:20;145755.19;;;3.06;100.00
50226;BME280;36113;50.742;6.432;2022-11-20T09:56:50;145734.03;;;2.97;100.00
50226;BME280;36113;50.742;6.432;2022-11-20T09:59:30;145742.75;;;3.01;100.00
50226;BME280;36113;50.742;6.432;2022-11-20T10:01:59;145739.00;;;2.99;100.00
50226;BME280;36113;50.742;6.432;2022-11-20T10:04:25;145734.03;;;2.97;100.00
50226;BME280;36113;50.742;6.432;2022-11-20T10:07:07;145746.47;;;3.03;100.00
50226;BME280;36113;50.742;6.432;2022-11-20T10:09:40;145722.81;;;2.93;100.00
50226;BME280;36113;50.742;6.432;2022-11-20T10:20:17;145762.63;;;3.09;100.00
50226;BME280;36113;50.742;6.432;2022-11-20T10:22:55;145772.63;;;3.13;100.00
50226;BME280;36113;50.742;6.432;2022-11-20T10:28:23;145741.47;;;3.00;100.00
50226;BME280;36113;50.742;6.432;2022-11-20T10:31:00;145790.03;;;3.21;100.00
50226;BME280;36113;50.742;6.432;2022-11-20T10:33:32;145771.34;;;3.13;100.00
50226;BME280;36113;50.742;6.432;2022-11-20T10:38:46;145803.72;;;3.26;100.00
50226;BME280;36113;50.742;6.432;2022-11-20T10:41:19;145816.19;;;3.31;100.00
50226;BME280;36113;50.742;6.432;2022-11-20T10:43:57;145777.59;;;3.15;100.00
50226;BME280;36113;50.742;6.432;2022-11-20T10:46:34;145756.44;;;3.07;100.00
50226;BME280;36113;50.742;6.432;2022-11-20T10:49:06;145829.94;;;3.37;100.00
50226;BME280;36113;50.742;6.432;2022-11-20T10:57:04;145826.19;;;3.35;100.00
50226;BME280;36113;50.742;6.432;2022-11-20T11:00:04;145869.75;;;3.53;100.00
50226;BME280;36113;50.742;6.432;2022-11-20T11:02:44;145869.75;;;3.53;100.00
50226;BME280;36113;50.742;6.432;2022-11-20T11:07:48;145893.44;;;3.63;100.00
50226;BME280;36113;50.742;6.432;2022-11-20T11:10:18;145910.88;;;3.70;100.00
50226;BME280;36113;50.742;6.432;2022-11-20T11:12:45;145899.66;;;3.66;100.00
50226;BME280;36113;50.742;6.432;2022-11-20T11:15:14;145930.81;;;3.79;100.00
50226;BME280;36113;50.742;6.432;2022-11-20T11:17:49;145958.22;;;3.90;100.00
50226;BME280;36113;50.742;6.432;2022-11-20T11:20:20;146001.84;;;4.08;100.00
50226;BME280;36113;50.742;6.432;2022-11-20T11:25:36;146041.72;;;4.24;100.00
50226;BME280;36113;50.742;6.432;2022-11-20T11:30:43;146122.78;;;4.58;100.00
50226;BME280;36113;50.742;6.432;2022-11-20T11:33:20;146089.13;;;4.44;100.00
50226;BME280;36113;50.742;6.432;2022-11-20T11:35:54;146141.47;;;4.65;100.00
50226;BME280;36113;50.742;6.432;2022-11-20T11:38:32;146111.53;;;4.53;100.00
50226;BME280;36113;50.742;6.432;2022-11-20T11:41:00;146152.69;;;4.70;100.00
50226;BME280;36113;50.742;6.432;2022-11-20T11:43:29;146155.19;;;4.71;100.00
50226;BME280;36113;50.742;6.432;2022-11-20T11:49:16;146131.50;;;4.61;100.00
50226;BME280;36113;50.742;6.432;2022-11-20T12:00:08;146137.72;;;4.64;100.00
50226;BME280;36113;50.742;6.432;2022-11-20T12:07:54;146170.16;;;4.77;100.00
50226;BME280;36113;50.742;6.432;2022-11-20T12:15:44;146186.34;;;4.84;100.00
50226;BME280;36113;50.742;6.432;2022-11-20T12:18:15;146198.81;;;4.89;100.00
50226;BME280;36113;50.742;6.432;2022-11-20T12:20:58;146211.31;;;4.94;100.00
50226;BME280;36113;50.742;6.432;2022-11-20T12:23:47;146168.91;;;4.77;100.00
50226;BME280;36113;50.742;6.432;2022-11-20T12:40:22;146473.38;;;6.02;100.00
50226;BME280;36113;50.742;6.432;2022-11-20T12:48:51;146558.25;;;6.37;100.00
50226;BME280;36113;50.742;6.432;2022-11-20T13:03:51;146611.97;;;6.59;100.00
50226;BME280;36113;50.742;6.432;2022-11-20T13:05:55;146604.44;;;6.56;100.00
50226;BME280;36113;50.742;6.432;2022-11-20T13:08:25;146606.97;;;6.57;100.00
50226;BME280;36113;50.742;6.432;2022-11-20T13:13:48;146569.50;;;6.42;100.00
50226;BME280;36113;50.742;6.432;2022-11-20T13:16:29;146635.69;;;6.69;100.00
50226;BME280;36113;50.742;6.432;2022-11-20T13:19:02;146669.41;;;6.83;100.00
50226;BME280;36113;50.742;6.432;2022-11-20T13:21:45;146586.97;;;6.49;100.00
50226;BME280;36113;50.742;6.432;2022-11-20T13:24:25;146690.66;;;6.91;100.00
50226;BME280;36113;50.742;6.432;2022-11-20T13:29:41;146653.19;;;6.76;100.00
50226;BME280;36113;50.742;6.432;2022-11-20T13:34:38;146639.41;;;6.70;100.00
50226;BME280;36113;50.742;6.432;2022-11-20T13:37:04;146600.69;;;6.54;100.00
50226;BME280;36113;50.742;6.432;2022-11-20T13:39:32;146664.38;;;6.81;100.00
50226;BME280;36113;50.742;6.432;2022-11-20T13:42:00;146684.38;;;6.89;100.00
50226;BME280;36113;50.742;6.432;2022-11-20T13:44:46;146680.63;;;6.87;100.00
50226;BME280;36113;50.742;6.432;2022-11-20T13:47:38;146658.16;;;6.78;100.00
50226;BME280;36113;50.742;6.432;2022-11-20T13:50:14;146623.22;;;6.64;100.00
50226;BME280;36113;50.742;6.432;2022-11-20T13:55:23;146636.94;;;6.69;100.00
50226;BME280;36113;50.742;6.432;2022-11-20T14:00:48;146609.44;;;6.58;100.00
50226;BME280;36113;50.742;6.432;2022-11-20T14:03:21;146624.44;;;6.64;100.00
50226;BME280;36113;50.742;6.432;2022-11-20T14:05:54;146623.22;;;6.64;100.00
50226;BME280;36113;50.742;6.432;2022-11-20T14:08:44;146626.91;;;6.65;100.00
50226;BME280;36113;50.742;6.432;2022-11-20T14:11:19;146631.94;;;6.67;100.00
50226;BME280;36113;50.742;6.432;2022-11-20T14:14:13;146603.22;;;6.55;100.00
50226;BME280;36113;50.742;6.432;2022-11-20T14:16:39;146585.75;;;6.48;100.00
50226;BME280;36113;50.742;6.432;2022-11-20T14:21:52;146577.00;;;6.45;100.00
50226;BME280;36113;50.742;6.432;2022-11-20T14:24:22;146571.97;;;6.43;100.00
50226;BME280;36113;50.742;6.432;2022-11-20T14:26:49;146565.75;;;6.40;100.00
50226;BME280;36113;50.742;6.432;2022-11-20T14:29:16;146557.03;;;6.36;100.00
50226;BME280;36113;50.742;6.432;2022-11-20T14:31:43;146533.28;;;6.27;100.00
50226;BME280;36113;50.742;6.432;2022-11-20T14:34:18;146458.38;;;5.96;100.00
50226;BME280;36113;50.742;6.432;2022-11-20T14:36:44;146505.78;;;6.15;100.00
50226;BME280;36113;50.742;6.432;2022-11-20T14:39:12;146503.34;;;6.14;100.00
50226;BME280;36113;50.742;6.432;2022-11-20T14:41:53;146460.91;;;5.97;100.00
50226;BME280;36113;50.742;6.432;2022-11-20T14:44:31;146450.84;;;5.93;100.00
50226;BME280;36113;50.742;6.432;2022-11-20T14:47:00;146375.94;;;5.62;100.00